Terminal Aerodrome Forecast
Issued by NWS

Home | Current Version | Previous Version | Graphics & Text | Print | Product List | Glossary On
Versions: 1 2 3 4 5 6 7 8 9 10 11 12 13 14 15 16 17 18
065
FTUS43 KBIS 112241 AAB
TAFMOT
TAF AMD
KMOT 112241Z 1123/1218 33007KT P6SM OVC021
     FM120800 23010KT P6SM OVC035
     FM121200 32009KT P6SM SCT140=

USA.gov is the U.S. government's official web portal to all federal, state and local government web resources and services.